sensor_id;sensor_type;location;lat;lon;timestamp;pressure;altitude;pressure_sealevel;temperature;humidity
68193;BME280;55012;47.562;18.414;2022-07-25T00:02:04;99086.16;;;20.06;100.00
68193;BME280;55012;47.562;18.414;2022-07-25T00:04:30;99094.50;;;20.26;100.00
68193;BME280;55012;47.562;18.414;2022-07-25T00:06:55;99104.75;;;20.79;100.00
68193;BME280;55012;47.562;18.414;2022-07-25T00:09:21;99122.44;;;21.28;100.00
68193;BME280;55012;47.562;18.414;2022-07-25T00:11:46;99141.44;;;21.86;100.00
68193;BME280;55012;47.562;18.414;2022-07-25T00:14:12;99165.19;;;22.20;100.00
68193;BME280;55012;47.562;18.414;2022-07-25T00:16:37;99172.19;;;22.44;100.00
68193;BME280;55012;47.562;18.414;2022-07-25T00:19:04;99197.66;;;22.68;100.00
68193;BME280;55012;47.562;18.414;2022-07-25T00:21:29;99206.69;;;22.88;100.00
68193;BME280;55012;47.562;18.414;2022-07-25T00:23:55;99206.59;;;22.92;100.00
68193;BME280;55012;47.562;18.414;2022-07-25T00:26:20;99203.28;;;22.81;100.00
68193;BME280;55012;47.562;18.414;2022-07-25T00:28:46;99201.69;;;22.63;100.00
68193;BME280;55012;47.562;18.414;2022-07-25T00:31:11;99192.59;;;22.47;100.00
68193;BME280;55012;47.562;18.414;2022-07-25T00:33:37;99192.44;;;22.34;100.00
68193;BME280;55012;47.562;18.414;2022-07-25T00:36:05;99188.50;;;22.35;100.00
68193;BME280;55012;47.562;18.414;2022-07-25T00:38:31;99197.41;;;22.42;100.00
68193;BME280;55012;47.562;18.414;2022-07-25T00:40:56;99200.09;;;22.46;100.00
68193;BME280;55012;47.562;18.414;2022-07-25T00:43:22;99212.53;;;22.54;100.00
68193;BME280;55012;47.562;18.414;2022-07-25T00:45:47;99214.19;;;22.68;100.00
68193;BME280;55012;47.562;18.414;2022-07-25T00:48:13;99219.03;;;22.80;100.00
68193;BME280;55012;47.562;18.414;2022-07-25T00:50:38;99227.19;;;22.87;100.00
68193;BME280;55012;47.562;18.414;2022-07-25T00:53:04;99229.94;;;22.87;100.00
68193;BME280;55012;47.562;18.414;2022-07-25T00:55:31;99235.03;;;22.89;100.00
68193;BME280;55012;47.562;18.414;2022-07-25T00:57:57;99244.72;;;22.97;100.00
68193;BME280;55012;47.562;18.414;2022-07-25T01:00:23;99235.81;;;22.89;100.00
68193;BME280;55012;47.562;18.414;2022-07-25T01:02:48;99239.34;;;22.90;100.00
68193;BME280;55012;47.562;18.414;2022-07-25T01:05:14;99239.38;;;23.06;100.00
68193;BME280;55012;47.562;18.414;2022-07-25T01:07:39;99228.63;;;23.12;100.00
68193;BME280;55012;47.562;18.414;2022-07-25T01:10:06;99226.72;;;23.09;100.00
68193;BME280;55012;47.562;18.414;2022-07-25T01:12:46;99223.09;;;23.12;100.00
68193;BME280;55012;47.562;18.414;2022-07-25T01:15:11;99221.09;;;23.12;100.00
68193;BME280;55012;47.562;18.414;2022-07-25T01:17:37;99219.63;;;23.08;100.00
68193;BME280;55012;47.562;18.414;2022-07-25T01:20:03;99215.31;;;23.07;100.00
68193;BME280;55012;47.562;18.414;2022-07-25T01:22:28;99201.63;;;23.03;100.00
68193;BME280;55012;47.562;18.414;2022-07-25T01:24:54;99205.66;;;22.98;100.00
68193;BME280;55012;47.562;18.414;2022-07-25T01:27:19;99204.25;;;22.90;100.00
68193;BME280;55012;47.562;18.414;2022-07-25T01:29:45;99192.88;;;22.88;100.00
68193;BME280;55012;47.562;18.414;2022-07-25T01:32:11;99193.22;;;22.90;100.00
68193;BME280;55012;47.562;18.414;2022-07-25T01:34:36;99188.06;;;22.92;100.00
68193;BME280;55012;47.562;18.414;2022-07-25T01:37:02;99184.34;;;22.99;100.00
68193;BME280;55012;47.562;18.414;2022-07-25T01:39:27;99179.19;;;23.01;100.00
68193;BME280;55012;47.562;18.414;2022-07-25T01:41:53;99170.94;;;23.01;100.00
68193;BME280;55012;47.562;18.414;2022-07-25T01:44:18;99177.28;;;22.98;100.00
68193;BME280;55012;47.562;18.414;2022-07-25T01:46:44;99177.63;;;23.00;100.00
68193;BME280;55012;47.562;18.414;2022-07-25T01:49:09;99175.31;;;22.98;100.00
68193;BME280;55012;47.562;18.414;2022-07-25T01:51:35;99174.53;;;22.98;100.00
68193;BME280;55012;47.562;18.414;2022-07-25T01:54:00;99160.41;;;22.96;100.00
68193;BME280;55012;47.562;18.414;2022-07-25T01:56:25;99162.44;;;22.92;100.00
68193;BME280;55012;47.562;18.414;2022-07-25T01:58:51;99155.13;;;22.85;100.00
68193;BME280;55012;47.562;18.414;2022-07-25T02:01:16;99148.41;;;22.86;100.00
68193;BME280;55012;47.562;18.414;2022-07-25T02:03:42;99151.94;;;22.87;100.00
68193;BME280;55012;47.562;18.414;2022-07-25T02:06:08;99149.22;;;22.83;100.00
68193;BME280;55012;47.562;18.414;2022-07-25T02:08:34;99150.81;;;22.84;100.00
68193;BME280;55012;47.562;18.414;2022-07-25T02:11:00;99147.63;;;22.86;100.00
68193;BME280;55012;47.562;18.414;2022-07-25T02:13:26;99146.88;;;22.85;100.00
68193;BME280;55012;47.562;18.414;2022-07-25T02:15:52;99149.63;;;22.85;100.00
68193;BME280;55012;47.562;18.414;2022-07-25T02:18:17;99152.75;;;22.84;100.00
68193;BME280;55012;47.562;18.414;2022-07-25T02:20:42;99142.59;;;22.81;100.00
68193;BME280;55012;47.562;18.414;2022-07-25T02:23:08;99143.81;;;22.80;100.00
68193;BME280;55012;47.562;18.414;2022-07-25T02:25:35;99153.72;;;22.77;100.00
68193;BME280;55012;47.562;18.414;2022-07-25T02:28:01;99156.09;;;22.75;100.00
68193;BME280;55012;47.562;18.414;2022-07-25T02:30:26;99147.16;;;22.71;100.00
68193;BME280;55012;47.562;18.414;2022-07-25T02:32:52;99145.59;;;22.70;100.00
68193;BME280;55012;47.562;18.414;2022-07-25T02:35:18;99149.13;;;22.70;100.00
68193;BME280;55012;47.562;18.414;2022-07-25T02:37:43;99153.78;;;22.74;100.00
68193;BME280;55012;47.562;18.414;2022-07-25T02:40:09;99150.78;;;22.68;100.00
68193;BME280;55012;47.562;18.414;2022-07-25T02:42:35;99150.06;;;22.64;100.00
68193;BME280;55012;47.562;18.414;2022-07-25T02:45:01;99151.28;;;22.63;100.00
68193;BME280;55012;47.562;18.414;2022-07-25T02:47:26;99151.72;;;22.61;100.00
68193;BME280;55012;47.562;18.414;2022-07-25T02:49:52;99143.00;;;22.63;100.00
68193;BME280;55012;47.562;18.414;2022-07-25T02:52:17;99145.75;;;22.63;100.00
68193;BME280;55012;47.562;18.414;2022-07-25T02:54:43;99143.09;;;22.59;100.00
68193;BME280;55012;47.562;18.414;2022-07-25T02:57:08;99148.63;;;22.59;100.00
68193;BME280;55012;47.562;18.414;2022-07-25T02:59:34;99153.84;;;22.54;100.00
68193;BME280;55012;47.562;18.414;2022-07-25T03:01:59;99148.34;;;22.54;100.00
68193;BME280;55012;47.562;18.414;2022-07-25T03:04:25;99144.03;;;22.53;100.00
68193;BME280;55012;47.562;18.414;2022-07-25T03:06:50;99147.56;;;22.53;100.00
68193;BME280;55012;47.562;18.414;2022-07-25T03:09:16;99137.66;;;22.56;100.00
68193;BME280;55012;47.562;18.414;2022-07-25T03:11:41;99140.41;;;22.56;100.00
68193;BME280;55012;47.562;18.414;2022-07-25T03:14:07;99149.44;;;22.56;100.00
68193;BME280;55012;47.562;18.414;2022-07-25T03:16:33;99144.03;;;22.53;100.00
68193;BME280;55012;47.562;18.414;2022-07-25T03:18:58;99142.47;;;22.52;100.00
68193;BME280;55012;47.562;18.414;2022-07-25T03:21:24;99140.84;;;22.54;100.00
68193;BME280;55012;47.562;18.414;2022-07-25T03:23:50;99146.25;;;22.58;100.00
68193;BME280;55012;47.562;18.414;2022-07-25T03:26:15;99145.91;;;22.56;100.00
68193;BME280;55012;47.562;18.414;2022-07-25T03:28:41;99147.13;;;22.55;100.00
68193;BME280;55012;47.562;18.414;2022-07-25T03:31:06;99154.19;;;22.56;100.00
68193;BME280;55012;47.562;18.414;2022-07-25T03:33:32;99152.97;;;22.57;100.00
68193;BME280;55012;47.562;18.414;2022-07-25T03:35:57;99150.66;;;22.55;100.00
68193;BME280;55012;47.562;18.414;2022-07-25T03:38:23;99155.75;;;22.57;100.00
68193;BME280;55012;47.562;18.414;2022-07-25T03:40:49;99159.03;;;22.52;100.00
68193;BME280;55012;47.562;18.414;2022-07-25T03:43:14;99161.97;;;22.61;100.00
68193;BME280;55012;47.562;18.414;2022-07-25T03:45:40;99156.38;;;22.81;100.00
68193;BME280;55012;47.562;18.414;2022-07-25T03:48:06;99167.03;;;22.98;100.00
68193;BME280;55012;47.562;18.414;2022-07-25T03:50:31;99170.84;;;23.05;100.00
68193;BME280;55012;47.562;18.414;2022-07-25T03:52:57;99171.94;;;23.07;100.00
68193;BME280;55012;47.562;18.414;2022-07-25T03:55:22;99173.00;;;23.13;100.00
68193;BME280;55012;47.562;18.414;2022-07-25T03:57:48;99169.00;;;23.14;100.00
68193;BME280;55012;47.562;18.414;2022-07-25T04:00:13;99169.00;;;23.14;100.00
68193;BME280;55012;47.562;18.414;2022-07-25T04:02:39;99168.06;;;23.21;100.00
68193;BME280;55012;47.562;18.414;2022-07-25T04:05:06;99161.28;;;23.25;100.00
68193;BME280;55012;47.562;18.414;2022-07-25T04:07:32;99165.81;;;23.32;100.00
68193;BME280;55012;47.562;18.414;2022-07-25T04:09:57;99169.34;;;23.33;100.00
68193;BME280;55012;47.562;18.414;2022-07-25T04:12:23;99172.38;;;23.38;100.00
68193;BME280;55012;47.562;18.414;2022-07-25T04:14:48;99175.56;;;23.37;100.00
68193;BME280;55012;47.562;18.414;2022-07-25T04:17:14;99175.13;;;23.38;100.00
68193;BME280;55012;47.562;18.414;2022-07-25T04:19:40;99165.97;;;23.41;100.00
68193;BME280;55012;47.562;18.414;2022-07-25T04:22:05;99171.41;;;23.45;100.00
68193;BME280;55012;47.562;18.414;2022-07-25T04:24:31;99175.84;;;23.42;100.00
68193;BME280;55012;47.562;18.414;2022-07-25T04:26:56;99177.22;;;23.50;100.00
68193;BME280;55012;47.562;18.414;2022-07-25T04:29:22;99185.13;;;23.48;100.00
68193;BME280;55012;47.562;18.414;2022-07-25T04:31:47;99177.63;;;23.49;100.00
68193;BME280;55012;47.562;18.414;2022-07-25T04:34:13;99174.44;;;23.50;100.00
68193;BME280;55012;47.562;18.414;2022-07-25T04:36:38;99179.53;;;23.52;100.00
68193;BME280;55012;47.562;18.414;2022-07-25T04:39:04;99179.97;;;23.50;100.00
68193;BME280;55012;47.562;18.414;2022-07-25T04:41:30;99166.06;;;23.54;100.00
68193;BME280;55012;47.562;18.414;2022-07-25T04:43:55;99175.44;;;23.57;100.00
68193;BME280;55012;47.562;18.414;2022-07-25T04:46:21;99169.88;;;23.60;100.00
68193;BME280;55012;47.562;18.414;2022-07-25T04:48:48;99167.13;;;23.60;100.00
68193;BME280;55012;47.562;18.414;2022-07-25T04:51:14;99170.22;;;23.62;100.00
68193;BME280;55012;47.562;18.414;2022-07-25T04:53:40;99168.13;;;23.66;100.00
68193;BME280;55012;47.562;18.414;2022-07-25T04:56:05;99166.94;;;23.67;100.00
68193;BME280;55012;47.562;18.414;2022-07-25T04:58:31;99166.16;;;23.67;100.00
68193;BME280;55012;47.562;18.414;2022-07-25T05:00:57;99166.94;;;23.67;100.00
68193;BME280;55012;47.562;18.414;2022-07-25T05:03:23;99166.72;;;23.74;100.00
68193;BME280;55012;47.562;18.414;2022-07-25T05:05:49;99168.28;;;23.75;100.00
68193;BME280;55012;47.562;18.414;2022-07-25T05:08:14;99169.28;;;23.81;100.00
68193;BME280;55012;47.562;18.414;2022-07-25T05:10:40;99173.19;;;23.84;100.00
68193;BME280;55012;47.562;18.414;2022-07-25T05:13:05;99163.78;;;23.81;100.00
68193;BME280;55012;47.562;18.414;2022-07-25T05:15:31;99169.88;;;23.89;100.00
68193;BME280;55012;47.562;18.414;2022-07-25T05:17:56;99160.03;;;23.88;100.00
68193;BME280;55012;47.562;18.414;2022-07-25T05:20:22;99171.88;;;23.89;100.00
68193;BME280;55012;47.562;18.414;2022-07-25T05:22:47;99159.59;;;23.90;100.00
68193;BME280;55012;47.562;18.414;2022-07-25T05:25:13;99165.47;;;23.92;100.00
68193;BME280;55012;47.562;18.414;2022-07-25T05:27:39;99162.28;;;23.93;100.00
68193;BME280;55012;47.562;18.414;2022-07-25T05:30:07;99162.94;;;23.97;100.00
68193;BME280;55012;47.562;18.414;2022-07-25T05:32:33;99164.16;;;23.96;100.00
68193;BME280;55012;47.562;18.414;2022-07-25T05:34:59;99172.00;;;23.98;100.00
68193;BME280;55012;47.562;18.414;2022-07-25T05:37:24;99162.41;;;24.02;100.00
68193;BME280;55012;47.562;18.414;2022-07-25T05:39:50;99173.81;;;24.04;100.00
68193;BME280;55012;47.562;18.414;2022-07-25T05:42:16;99168.06;;;24.12;100.00
68193;BME280;55012;47.562;18.414;2022-07-25T05:44:41;99166.34;;;24.18;100.00
68193;BME280;55012;47.562;18.414;2022-07-25T05:47:10;99167.56;;;24.17;100.00
68193;BME280;55012;47.562;18.414;2022-07-25T05:49:36;99174.44;;;24.25;100.00
68193;BME280;55012;47.562;18.414;2022-07-25T05:52:03;99167.22;;;24.27;100.00
68193;BME280;55012;47.562;18.414;2022-07-25T05:54:29;99167.06;;;24.34;100.00
68193;BME280;55012;47.562;18.414;2022-07-25T05:56:54;99179.22;;;24.37;100.00
68193;BME280;55012;47.562;18.414;2022-07-25T05:59:20;99179.47;;;24.43;100.00
68193;BME280;55012;47.562;18.414;2022-07-25T06:01:45;99172.81;;;24.40;100.00
68193;BME280;55012;47.562;18.414;2022-07-25T06:04:10;99178.25;;;24.44;100.00
68193;BME280;55012;47.562;18.414;2022-07-25T06:06:36;99177.47;;;24.43;100.00
68193;BME280;55012;47.562;18.414;2022-07-25T06:09:02;99181.56;;;24.51;100.00
68193;BME280;55012;47.562;18.414;2022-07-25T06:11:28;99180.47;;;24.61;100.00
68193;BME280;55012;47.562;18.414;2022-07-25T06:13:54;99182.03;;;24.62;100.00
68193;BME280;55012;47.562;18.414;2022-07-25T06:16:20;99191.53;;;24.61;100.00
68193;BME280;55012;47.562;18.414;2022-07-25T06:18:45;99187.56;;;24.62;100.00
68193;BME280;55012;47.562;18.414;2022-07-25T06:21:11;99182.47;;;24.61;100.00
68193;BME280;55012;47.562;18.414;2022-07-25T06:23:36;99183.81;;;24.69;100.00
68193;BME280;55012;47.562;18.414;2022-07-25T06:26:02;99186.44;;;24.73;100.00
68193;BME280;55012;47.562;18.414;2022-07-25T06:28:27;99183.13;;;24.78;100.00
68193;BME280;55012;47.562;18.414;2022-07-25T06:30:53;99178.06;;;24.76;100.00
68193;BME280;55012;47.562;18.414;2022-07-25T06:33:19;99176.72;;;24.81;100.00
68193;BME280;55012;47.562;18.414;2022-07-25T06:35:44;99176.25;;;24.82;100.00
68193;BME280;55012;47.562;18.414;2022-07-25T06:38:10;99172.19;;;24.87;100.00
68193;BME280;55012;47.562;18.414;2022-07-25T06:40:35;99171.28;;;24.90;100.00
68193;BME280;55012;47.562;18.414;2022-07-25T06:43:01;99177.16;;;24.92;100.00
68193;BME280;55012;47.562;18.414;2022-07-25T06:45:26;99177.50;;;24.94;100.00
68193;BME280;55012;47.562;18.414;2022-07-25T06:47:52;99187.22;;;24.99;100.00
68193;BME280;55012;47.562;18.414;2022-07-25T06:50:18;99186.44;;;24.98;100.00
68193;BME280;55012;47.562;18.414;2022-07-25T06:52:44;99182.91;;;24.98;100.00
68193;BME280;55012;47.562;18.414;2022-07-25T06:55:11;99176.59;;;24.97;100.00
68193;BME280;55012;47.562;18.414;2022-07-25T06:57:37;99179.94;;;25.05;100.00
68193;BME280;55012;47.562;18.414;2022-07-25T07:00:05;99174.72;;;25.07;100.00
68193;BME280;55012;47.562;18.414;2022-07-25T07:02:34;99175.53;;;25.07;100.00
68193;BME280;55012;47.562;18.414;2022-07-25T07:04:59;99177.50;;;25.07;100.00
68193;BME280;55012;47.562;18.414;2022-07-25T07:07:25;99174.50;;;25.14;100.00
68193;BME280;55012;47.562;18.414;2022-07-25T07:09:51;99181.16;;;25.16;100.00
68193;BME280;55012;47.562;18.414;2022-07-25T07:12:17;99177.28;;;25.14;100.00
68193;BME280;55012;47.562;18.414;2022-07-25T07:14:42;99176.63;;;25.10;100.00
68193;BME280;55012;47.562;18.414;2022-07-25T07:17:09;99179.28;;;25.13;100.00
68193;BME280;55012;47.562;18.414;2022-07-25T07:19:36;99174.72;;;25.19;100.00
68193;BME280;55012;47.562;18.414;2022-07-25T07:22:07;99182.81;;;25.27;100.00
68193;BME280;55012;47.562;18.414;2022-07-25T07:24:33;99190.97;;;25.30;100.00
68193;BME280;55012;47.562;18.414;2022-07-25T07:26:58;99195.88;;;25.26;100.00
68193;BME280;55012;47.562;18.414;2022-07-25T07:29:24;99182.81;;;25.27;100.00
68193;BME280;55012;47.562;18.414;2022-07-25T07:31:49;99184.34;;;25.28;100.00
68193;BME280;55012;47.562;18.414;2022-07-25T07:34:15;99184.91;;;25.35;100.00
68193;BME280;55012;47.562;18.414;2022-07-25T07:36:40;99181.88;;;25.42;100.00
68193;BME280;55012;47.562;18.414;2022-07-25T07:39:06;99176.66;;;25.44;100.00
68193;BME280;55012;47.562;18.414;2022-07-25T07:41:32;99178.34;;;25.42;100.00
68193;BME280;55012;47.562;18.414;2022-07-25T07:43:57;99186.97;;;25.44;100.00
68193;BME280;55012;47.562;18.414;2022-07-25T07:46:23;99178.22;;;25.45;100.00
68193;BME280;55012;47.562;18.414;2022-07-25T07:48:48;99179.19;;;25.52;100.00
68193;BME280;55012;47.562;18.414;2022-07-25T07:51:13;99174.75;;;25.54;100.00
68193;BME280;55012;47.562;18.414;2022-07-25T07:53:39;99164.13;;;25.53;100.00
68193;BME280;55012;47.562;18.414;2022-07-25T07:56:23;99168.00;;;25.55;100.00
68193;BME280;55012;47.562;18.414;2022-07-25T07:58:49;99155.69;;;25.56;100.00
68193;BME280;55012;47.562;18.414;2022-07-25T08:01:14;99161.56;;;25.58;100.00
68193;BME280;55012;47.562;18.414;2022-07-25T08:03:40;99159.56;;;25.59;100.00
68193;BME280;55012;47.562;18.414;2022-07-25T08:06:06;99163.66;;;25.67;100.00
68193;BME280;55012;47.562;18.414;2022-07-25T08:08:31;99151.66;;;25.70;100.00
68193;BME280;55012;47.562;18.414;2022-07-25T08:10:57;99156.00;;;25.71;100.00
68193;BME280;55012;47.562;18.414;2022-07-25T08:13:25;99157.13;;;25.73;100.00
68193;BME280;55012;47.562;18.414;2022-07-25T08:15:53;99154.22;;;25.77;100.00
68193;BME280;55012;47.562;18.414;2022-07-25T08:18:21;99154.84;;;25.81;100.00
68193;BME280;55012;47.562;18.414;2022-07-25T08:20:47;99150.88;;;25.82;100.00
68193;BME280;55012;47.562;18.414;2022-07-25T08:23:13;99156.28;;;25.86;100.00
68193;BME280;55012;47.562;18.414;2022-07-25T08:25:39;99150.28;;;25.87;100.00
68193;BME280;55012;47.562;18.414;2022-07-25T08:28:05;99146.28;;;25.88;100.00
68193;BME280;55012;47.562;18.414;2022-07-25T08:30:32;99152.59;;;25.89;100.00
68193;BME280;55012;47.562;18.414;2022-07-25T08:33:00;99143.84;;;25.90;100.00
68193;BME280;55012;47.562;18.414;2022-07-25T08:35:28;99143.38;;;25.92;100.00
68193;BME280;55012;47.562;18.414;2022-07-25T08:37:54;99142.47;;;25.95;100.00
68193;BME280;55012;47.562;18.414;2022-07-25T08:40:21;99141.56;;;25.98;100.00
68193;BME280;55012;47.562;18.414;2022-07-25T08:42:48;99136.38;;;26.00;100.00
68193;BME280;55012;47.562;18.414;2022-07-25T08:45:15;99144.09;;;26.05;100.00
68193;BME280;55012;47.562;18.414;2022-07-25T08:47:42;99140.09;;;26.06;100.00
68193;BME280;55012;47.562;18.414;2022-07-25T08:50:10;99147.19;;;26.07;100.00
68193;BME280;55012;47.562;18.414;2022-07-25T08:52:37;99149.81;;;26.11;100.00
68193;BME280;55012;47.562;18.414;2022-07-25T08:55:06;99153.69;;;26.13;100.00
68193;BME280;55012;47.562;18.414;2022-07-25T08:57:33;99149.38;;;26.12;100.00
68193;BME280;55012;47.562;18.414;2022-07-25T09:00:00;99141.97;;;26.09;100.00
68193;BME280;55012;47.562;18.414;2022-07-25T09:02:27;99137.50;;;26.12;100.00
68193;BME280;55012;47.562;18.414;2022-07-25T09:04:54;99145.25;;;26.17;100.00
68193;BME280;55012;47.562;18.414;2022-07-25T09:07:36;99147.56;;;26.18;100.00
68193;BME280;55012;47.562;18.414;2022-07-25T09:10:20;99150.66;;;26.20;100.00
68193;BME280;55012;47.562;18.414;2022-07-25T09:13:12;99148.53;;;26.24;100.00
68193;BME280;55012;47.562;18.414;2022-07-25T09:18:12;99146.06;;;26.26;100.00
68193;BME280;55012;47.562;18.414;2022-07-25T09:20:46;99149.63;;;26.27;100.00
68193;BME280;55012;47.562;18.414;2022-07-25T09:23:14;99139.75;;;26.26;100.00
68193;BME280;55012;47.562;18.414;2022-07-25T09:25:50;99138.97;;;26.25;100.00
68193;BME280;55012;47.562;18.414;2022-07-25T09:28:18;99132.53;;;26.28;100.00
68193;BME280;55012;47.562;18.414;2022-07-25T09:30:57;99130.25;;;26.36;100.00
68193;BME280;55012;47.562;18.414;2022-07-25T09:33:24;99117.84;;;26.41;100.00
68193;BME280;55012;47.562;18.414;2022-07-25T09:35:51;99117.22;;;26.46;100.00
68193;BME280;55012;47.562;18.414;2022-07-25T09:38:18;99117.53;;;26.48;100.00
68193;BME280;55012;47.562;18.414;2022-07-25T09:41:01;99121.56;;;26.56;100.00
68193;BME280;55012;47.562;18.414;2022-07-25T09:43:36;99107.28;;;26.57;100.00
68193;BME280;55012;47.562;18.414;2022-07-25T09:46:02;99110.47;;;26.56;100.00
68193;BME280;55012;47.562;18.414;2022-07-25T09:48:27;99109.41;;;26.53;100.00
68193;BME280;55012;47.562;18.414;2022-07-25T09:50:53;99107.28;;;26.57;100.00
68193;BME280;55012;47.562;18.414;2022-07-25T09:53:19;99101.84;;;26.54;100.00
68193;BME280;55012;47.562;18.414;2022-07-25T09:55:45;99110.16;;;26.54;100.00
68193;BME280;55012;47.562;18.414;2022-07-25T09:58:12;99098.31;;;26.53;100.00
68193;BME280;55012;47.562;18.414;2022-07-25T10:00:40;99098.03;;;26.60;100.00
68193;BME280;55012;47.562;18.414;2022-07-25T10:08:45;99097.56;;;26.62;100.00
68193;BME280;55012;47.562;18.414;2022-07-25T10:11:23;99099.09;;;26.63;100.00
68193;BME280;55012;47.562;18.414;2022-07-25T10:13:49;99093.56;;;26.63;100.00
68193;BME280;55012;47.562;18.414;2022-07-25T10:16:19;99096.31;;;26.63;100.00
68193;BME280;55012;47.562;18.414;2022-07-25T10:18:53;99093.88;;;26.65;100.00
68193;BME280;55012;47.562;18.414;2022-07-25T10:21:21;99090.97;;;26.69;100.00
68193;BME280;55012;47.562;18.414;2022-07-25T10:24:07;99084.00;;;26.64;100.00
68193;BME280;55012;47.562;18.414;2022-07-25T10:26:38;99074.31;;;26.69;100.00
68193;BME280;55012;47.562;18.414;2022-07-25T10:29:10;99082.03;;;26.74;100.00
68193;BME280;55012;47.562;18.414;2022-07-25T10:31:40;99069.84;;;26.80;100.00
68193;BME280;55012;47.562;18.414;2022-07-25T10:34:10;99071.09;;;26.79;100.00
68193;BME280;55012;47.562;18.414;2022-07-25T10:36:46;99070.63;;;26.81;100.00
68193;BME280;55012;47.562;18.414;2022-07-25T10:39:13;99069.91;;;26.90;100.00
68193;BME280;55012;47.562;18.414;2022-07-25T10:41:48;99070.41;;;27.06;100.00
68193;BME280;55012;47.562;18.414;2022-07-25T10:44:15;99065.25;;;26.96;100.00
68193;BME280;55012;47.562;18.414;2022-07-25T10:46:45;99063.91;;;27.00;100.00
68193;BME280;55012;47.562;18.414;2022-07-25T10:49:20;99064.97;;;26.94;100.00
68193;BME280;55012;47.562;18.414;2022-07-25T10:52:00;99060.03;;;26.98;100.00
68193;BME280;55012;47.562;18.414;2022-07-25T10:54:37;99065.00;;;27.12;100.00
68193;BME280;55012;47.562;18.414;2022-07-25T10:57:14;99058.50;;;27.06;100.00
68193;BME280;55012;47.562;18.414;2022-07-25T10:59:39;99057.91;;;27.20;100.00
68193;BME280;55012;47.562;18.414;2022-07-25T11:02:08;99056.84;;;27.36;100.00
68193;BME280;55012;47.562;18.414;2022-07-25T11:04:36;99045.25;;;27.47;100.00
68193;BME280;55012;47.562;18.414;2022-07-25T11:07:15;99042.47;;;27.47;100.00
68193;BME280;55012;47.562;18.414;2022-07-25T11:09:58;99024.56;;;27.38;100.00
68193;BME280;55012;47.562;18.414;2022-07-25T11:12:24;99036.94;;;27.28;100.00
68193;BME280;55012;47.562;18.414;2022-07-25T11:14:50;99030.59;;;27.37;100.00
68193;BME280;55012;47.562;18.414;2022-07-25T11:19:56;99021.19;;;27.34;100.00
68193;BME280;55012;47.562;18.414;2022-07-25T11:22:22;99014.69;;;27.37;100.00
68193;BME280;55012;47.562;18.414;2022-07-25T11:24:47;99011.63;;;27.44;100.00
68193;BME280;55012;47.562;18.414;2022-07-25T11:27:27;99021.81;;;27.48;100.00
68193;BME280;55012;47.562;18.414;2022-07-25T11:30:04;99008.03;;;27.53;100.00
68193;BME280;55012;47.562;18.414;2022-07-25T11:32:47;99005.56;;;27.64;100.00
68193;BME280;55012;47.562;18.414;2022-07-25T11:35:14;99005.44;;;27.68;100.00
68193;BME280;55012;47.562;18.414;2022-07-25T11:37:42;99008.19;;;27.77;100.00
68193;BME280;55012;47.562;18.414;2022-07-25T11:40:08;99000.75;;;27.83;100.00
68193;BME280;55012;47.562;18.414;2022-07-25T11:42:42;98994.38;;;28.01;100.00
68193;BME280;55012;47.562;18.414;2022-07-25T11:47:47;98992.88;;;27.91;100.00
68193;BME280;55012;47.562;18.414;2022-07-25T11:50:13;98988.03;;;28.01;100.00
68193;BME280;55012;47.562;18.414;2022-07-25T11:52:40;98981.03;;;28.14;100.00
68193;BME280;55012;47.562;18.414;2022-07-25T11:55:15;98982.69;;;28.30;100.00
68193;BME280;55012;47.562;18.414;2022-07-25T11:57:43;98976.66;;;28.32;100.00
68193;BME280;55012;47.562;18.414;2022-07-25T12:00:16;98972.47;;;28.27;100.00
68193;BME280;55012;47.562;18.414;2022-07-25T12:02:42;98964.44;;;28.20;100.00
68193;BME280;55012;47.562;18.414;2022-07-25T12:05:11;98960.72;;;27.99;100.00
68193;BME280;55012;47.562;18.414;2022-07-25T12:10:03;98952.00;;;27.73;100.00
68193;BME280;55012;47.562;18.414;2022-07-25T12:13:00;98952.84;;;27.88;100.00
68193;BME280;55012;47.562;18.414;2022-07-25T12:15:39;98956.81;;;28.06;100.00
68193;BME280;55012;47.562;18.414;2022-07-25T12:18:06;98957.78;;;28.26;100.00
68193;BME280;55012;47.562;18.414;2022-07-25T12:20:37;98955.53;;;28.49;100.00
68193;BME280;55012;47.562;18.414;2022-07-25T12:23:04;98957.97;;;28.71;100.00
68193;BME280;55012;47.562;18.414;2022-07-25T12:25:31;98961.91;;;28.88;100.00
68193;BME280;55012;47.562;18.414;2022-07-25T12:27:58;98955.44;;;29.06;100.00
68193;BME280;55012;47.562;18.414;2022-07-25T12:30:28;98946.47;;;29.02;100.00
68193;BME280;55012;47.562;18.414;2022-07-25T12:32:56;98947.84;;;29.06;100.00
68193;BME280;55012;47.562;18.414;2022-07-25T12:35:22;98937.84;;;29.00;100.00
68193;BME280;55012;47.562;18.414;2022-07-25T12:37:48;98931.09;;;28.92;100.00
68193;BME280;55012;47.562;18.414;2022-07-25T12:40:15;98923.38;;;28.87;100.00
68193;BME280;55012;47.562;18.414;2022-07-25T12:42:42;98933.13;;;28.91;100.00
68193;BME280;55012;47.562;18.414;2022-07-25T12:45:08;98926.22;;;29.01;100.00
68193;BME280;55012;47.562;18.414;2022-07-25T12:47:34;98912.84;;;28.91;100.00
68193;BME280;55012;47.562;18.414;2022-07-25T12:49:59;98910.81;;;28.52;100.00
68193;BME280;55012;47.562;18.414;2022-07-25T12:52:25;98894.50;;;28.12;100.00
68193;BME280;55012;47.562;18.414;2022-07-25T12:54:51;98893.00;;;28.02;100.00
68193;BME280;55012;47.562;18.414;2022-07-25T12:57:16;98894.09;;;28.28;100.00